Time;durP1;ratioP1;P1;durP2;ratioP2;P2;SDS_P1;SDS_P2;PMS_P1;PMS_P2;Temp;Humidity;BMP_temperature;BMP_pressure;BME280_temperature;BME280_humidity;BME280_pressure;Samples;Min_cycle;Max_cycle;Signal;HPM_P1;HPM_P2
2023/04/22 00:01:40;;;;;;;6.13;3.33;;;9.50;93.00;9.30;100434.00;;;;4933804;28;120801;-65
2023/04/22 00:04:06;;;;;;;4.50;3.43;;;9.50;93.40;9.30;100430.00;;;;4932920;28;109856;-66
2023/04/22 00:06:32;;;;;;;5.13;4.47;;;9.40;93.60;9.20;100427.00;;;;4937437;28;87655;-66
2023/04/22 00:09:00;;;;;;;3.40;2.80;;;9.30;94.00;9.20;100423.00;;;;4928522;28;117087;-66
2023/04/22 00:11:26;;;;;;;5.63;3.10;;;9.30;94.20;9.10;100419.00;;;;4932812;28;117509;-65
2023/04/22 00:13:52;;;;;;;4.00;3.20;;;9.30;94.60;9.10;100417.00;;;;4934416;28;111079;-66
2023/04/22 00:16:17;;;;;;;5.53;3.47;;;9.20;94.90;9.00;100412.00;;;;4933133;28;99344;-66
2023/04/22 00:18:43;;;;;;;5.60;3.27;;;9.20;95.20;9.00;100413.00;;;;4937926;28;88835;-65
2023/04/22 00:21:09;;;;;;;5.27;3.77;;;9.10;95.60;8.90;100412.00;;;;4931355;28;106767;-66
2023/04/22 00:23:35;;;;;;;4.00;3.57;;;9.00;95.90;8.90;100412.00;;;;4934562;28;88691;-65
2023/04/22 00:26:01;;;;;;;6.17;3.70;;;9.00;96.30;8.80;100408.00;;;;4933683;28;107883;-66
2023/04/22 00:28:27;;;;;;;4.83;3.30;;;8.90;96.60;8.80;100413.00;;;;4931055;28;88912;-66
2023/04/22 00:30:52;;;;;;;6.00;4.10;;;8.90;96.90;8.70;100409.00;;;;4933817;28;88062;-66
2023/04/22 00:33:18;;;;;;;4.97;2.90;;;8.80;97.30;8.60;100405.00;;;;4933965;28;88087;-66
2023/04/22 00:35:46;;;;;;;4.10;3.40;;;8.80;97.60;8.60;100406.00;;;;4932617;28;109995;-65
2023/04/22 00:38:12;;;;;;;8.70;4.07;;;8.70;98.40;8.50;100401.00;;;;4933597;28;117025;-66
2023/04/22 00:40:38;;;;;;;7.07;3.63;;;8.60;98.60;8.40;100394.00;;;;4937666;28;116298;-66
2023/04/22 00:43:04;;;;;;;4.87;3.27;;;8.60;98.90;8.40;100393.00;;;;4932588;28;109437;-66
2023/04/22 00:45:30;;;;;;;3.23;2.93;;;8.50;99.30;8.30;100402.00;;;;4938555;28;107475;-65
2023/04/22 00:47:56;;;;;;;6.80;3.93;;;8.70;99.80;8.20;100405.00;;;;4931167;28;89876;-65
2023/04/22 00:50:22;;;;;;;3.67;3.37;;;8.40;99.90;8.20;100388.00;;;;4931237;28;89768;-66
2023/04/22 00:52:48;;;;;;;5.87;3.73;;;8.30;99.90;8.10;100388.00;;;;4934601;28;110705;-65
2023/04/22 00:55:14;;;;;;;5.30;3.47;;;8.30;99.90;8.10;100381.00;;;;4936611;28;97710;-65
2023/04/22 00:57:40;;;;;;;3.83;3.53;;;8.30;99.90;8.00;100382.00;;;;4931281;28;87920;-65
2023/04/22 01:00:08;;;;;;;4.17;3.77;;;8.20;99.90;8.00;100391.00;;;;4933556;28;117337;-66
2023/04/22 01:02:37;;;;;;;6.97;3.27;;;8.20;99.90;8.00;100388.00;;;;4933213;28;87600;-65
2023/04/22 01:05:03;;;;;;;3.50;3.20;;;8.50;99.90;8.00;100383.00;;;;4931682;28;87079;-66
2023/04/22 01:07:29;;;;;;;5.63;4.00;;;8.10;99.90;7.90;100378.00;;;;4929207;28;109271;-66
2023/04/22 01:09:55;;;;;;;4.23;3.27;;;8.00;99.90;7.90;100377.00;;;;4935820;28;90902;-65
2023/04/22 01:12:21;;;;;;;7.70;4.43;;;8.00;99.90;7.90;100371.00;;;;4934254;28;100983;-65
2023/04/22 01:14:47;;;;;;;6.70;4.00;;;8.00;99.90;7.80;100374.00;;;;4936515;28;109532;-66
2023/04/22 01:17:13;;;;;;;4.63;4.13;;;8.00;99.90;7.80;100372.00;;;;4930050;28;117889;-66
2023/04/22 01:19:40;;;;;;;4.90;3.53;;;7.90;99.90;7.80;100375.00;;;;4932213;28;88640;-65
2023/04/22 01:22:07;;;;;;;4.37;3.97;;;7.90;99.90;7.80;100378.00;;;;4934400;28;87809;-66
2023/04/22 01:24:33;;;;;;;5.17;4.40;;;7.90;99.90;7.70;100372.00;;;;4929307;28;87875;-65
2023/04/22 01:26:59;;;;;;;6.23;4.20;;;7.90;99.90;7.70;100375.00;;;;4930308;28;117637;-65
2023/04/22 01:29:25;;;;;;;8.60;4.23;;;7.80;99.90;7.70;100367.00;;;;4934792;28;116747;-65
2023/04/22 01:31:52;;;;;;;4.03;3.63;;;7.80;99.90;7.70;100373.00;;;;4930935;28;110550;-66
2023/04/22 01:34:18;;;;;;;11.03;3.57;;;7.90;99.90;7.60;100372.00;;;;4932972;28;108324;-67
2023/04/22 01:36:44;;;;;;;4.43;3.93;;;7.80;99.90;7.60;100368.00;;;;4931135;28;118301;-66
2023/04/22 01:39:09;;;;;;;4.37;3.57;;;7.70;99.90;7.60;100365.00;;;;4932011;28;118112;-66
2023/04/22 01:41:35;;;;;;;5.27;4.07;;;8.10;99.90;7.50;100366.00;;;;4932749;28;108645;-66
2023/04/22 01:44:03;;;;;;;6.70;4.80;;;7.60;99.90;7.40;100371.00;;;;4928860;28;102785;-66
2023/04/22 01:46:29;;;;;;;7.10;4.87;;;7.70;99.90;7.40;100359.00;;;;4928031;28;89162;-66
2023/04/22 01:48:54;;;;;;;4.60;3.80;;;7.50;99.90;7.30;100361.00;;;;4932074;28;118186;-66
2023/04/22 01:51:20;;;;;;;4.70;3.97;;;7.50;99.90;7.30;100362.00;;;;4927823;28;110710;-66
2023/04/22 01:53:50;;;;;;;5.40;4.70;;;7.40;99.90;7.20;100368.00;;;;4932016;28;108721;-66
2023/04/22 01:56:16;;;;;;;4.50;3.73;;;7.40;99.90;7.20;100354.00;;;;4936137;28;87849;-65
2023/04/22 01:58:42;;;;;;;5.73;3.77;;;7.60;99.90;7.10;100353.00;;;;4932874;28;115362;-65
2023/04/22 02:01:09;;;;;;;6.47;4.83;;;7.80;99.90;7.10;100357.00;;;;4933805;28;111700;-66
2023/04/22 02:03:35;;;;;;;4.73;4.00;;;7.50;99.90;7.10;100360.00;;;;4929666;28;88046;-66
2023/04/22 02:06:01;;;;;;;5.37;3.93;;;7.20;99.90;7.00;100353.00;;;;4931962;28;118696;-65
2023/04/22 02:08:27;;;;;;;6.13;3.97;;;7.20;99.90;7.00;100347.00;;;;4932592;28;102568;-65
2023/04/22 02:10:53;;;;;;;4.87;3.80;;;7.10;99.90;6.90;100349.00;;;;4931215;28;111662;-65
2023/04/22 02:13:18;;;;;;;5.53;3.37;;;7.00;99.90;6.90;100339.00;;;;4929427;28;107240;-66
2023/04/22 02:15:44;;;;;;;5.03;3.97;;;7.00;99.90;6.80;100347.00;;;;4933384;28;87815;-66
2023/04/22 02:18:10;;;;;;;8.10;5.13;;;7.00;99.90;6.80;100326.00;;;;4932511;28;99400;-65
2023/04/22 02:20:36;;;;;;;7.57;5.07;;;6.90;99.90;6.70;100338.00;;;;4931825;28;103502;-66
2023/04/22 02:23:02;;;;;;;11.17;5.13;;;6.90;99.90;6.70;100332.00;;;;4930105;28;88084;-66
2023/04/22 02:25:28;;;;;;;4.73;4.30;;;6.90;99.90;6.60;100335.00;;;;4932407;28;109425;-66
2023/04/22 02:27:54;;;;;;;5.73;4.17;;;6.80;99.90;6.60;100337.00;;;;4935898;28;118386;-66
2023/04/22 02:30:20;;;;;;;4.07;3.67;;;6.80;99.90;6.60;100336.00;;;;4935672;28;87798;-66
2023/04/22 02:32:46;;;;;;;4.23;3.83;;;7.30;99.90;6.50;100337.00;;;;4936089;28;107484;-65
2023/04/22 02:35:12;;;;;;;4.43;4.03;;;6.70;99.90;6.50;100335.00;;;;4935891;28;115805;-65
2023/04/22 02:37:38;;;;;;;4.37;3.83;;;6.60;99.90;6.40;100335.00;;;;4934815;28;117199;-66
2023/04/22 02:40:06;;;;;;;3.73;3.43;;;6.90;99.90;6.40;100326.00;;;;4931987;28;87934;-65
2023/04/22 02:42:31;;;;;;;4.07;3.67;;;6.50;99.90;6.30;100321.00;;;;4933362;28;87208;-66
2023/04/22 02:44:57;;;;;;;6.00;4.57;;;6.90;99.90;6.30;100325.00;;;;4933944;28;116200;-65
2023/04/22 02:47:23;;;;;;;7.87;4.63;;;6.40;99.90;6.20;100318.00;;;;4926276;28;119222;-66
2023/04/22 02:49:48;;;;;;;5.03;3.50;;;6.40;99.90;6.20;100323.00;;;;4936139;28;109426;-66
2023/04/22 02:52:14;;;;;;;4.90;3.90;;;6.30;99.90;6.10;100312.00;;;;4933727;28;109268;-66
2023/04/22 02:54:40;;;;;;;7.80;4.47;;;6.20;99.90;6.10;100314.00;;;;4937511;28;91173;-65
2023/04/22 02:57:05;;;;;;;5.23;3.73;;;6.30;99.90;6.00;100321.00;;;;4932364;28;117875;-66
2023/04/22 02:59:31;;;;;;;5.17;4.17;;;6.20;99.90;6.00;100326.00;;;;4932270;28;96346;-65
2023/04/22 03:01:57;;;;;;;4.40;3.47;;;6.20;99.90;6.00;100316.00;;;;4929754;28;108585;-66
2023/04/22 03:04:24;;;;;;;7.73;5.03;;;6.10;99.90;6.00;100320.00;;;;4936710;28;109245;-65
2023/04/22 03:06:50;;;;;;;4.53;4.10;;;6.10;99.90;5.90;100313.00;;;;4933524;28;89365;-66
2023/04/22 03:09:16;;;;;;;7.90;4.43;;;6.10;99.90;5.90;100312.00;;;;4930062;28;87950;-65
2023/04/22 03:11:42;;;;;;;6.73;5.17;;;6.10;99.90;5.80;100317.00;;;;4936557;28;88126;-66
2023/04/22 03:14:08;;;;;;;6.50;5.00;;;6.30;99.90;5.80;100308.00;;;;4932184;28;111076;-66
2023/04/22 03:16:33;;;;;;;5.50;4.93;;;6.40;99.90;5.80;100311.00;;;;4934244;28;118441;-66
2023/04/22 03:18:59;;;;;;;5.73;4.63;;;5.90;99.90;5.70;100309.00;;;;4935212;28;90094;-66
2023/04/22 03:21:25;;;;;;;4.50;3.90;;;5.90;99.90;5.70;100310.00;;;;4933779;28;108918;-66
2023/04/22 03:23:51;;;;;;;5.53;4.07;;;5.90;99.90;5.60;100308.00;;;;4940095;28;88889;-65
2023/04/22 03:26:16;;;;;;;5.80;4.67;;;6.20;99.90;5.60;100310.00;;;;4933451;28;118108;-67
2023/04/22 03:28:42;;;;;;;8.37;5.20;;;6.20;99.90;5.60;100307.00;;;;4936652;28;108738;-65
2023/04/22 03:31:08;;;;;;;4.73;4.33;;;5.70;99.90;5.60;100309.00;;;;4936208;28;98060;-65
2023/04/22 03:33:33;;;;;;;8.03;5.37;;;6.40;99.90;5.60;100302.00;;;;4937073;28;88871;-65
2023/04/22 03:35:59;;;;;;;9.93;5.17;;;5.70;99.90;5.60;100303.00;;;;4935750;28;117818;-65
2023/04/22 03:38:25;;;;;;;7.03;4.47;;;5.70;99.90;5.60;100302.00;;;;4934661;28;110866;-65
2023/04/22 03:40:50;;;;;;;6.80;5.13;;;5.80;99.90;5.60;100305.00;;;;4936898;28;108959;-65
2023/04/22 03:43:16;;;;;;;5.97;4.40;;;5.70;99.90;5.70;100296.00;;;;4933379;28;118014;-66
2023/04/22 03:45:43;;;;;;;8.67;5.30;;;5.70;99.90;5.70;100299.00;;;;4936243;28;115703;-65
2023/04/22 03:48:08;;;;;;;5.33;4.60;;;5.80;99.90;5.70;100290.00;;;;4935740;28;90571;-65
2023/04/22 03:50:34;;;;;;;7.03;4.47;;;6.40;99.90;5.80;100305.00;;;;4933947;28;87685;-65
2023/04/22 03:53:00;;;;;;;5.93;4.87;;;5.90;99.90;5.80;100304.00;;;;4928296;28;118150;-65
2023/04/22 03:55:25;;;;;;;6.27;5.33;;;5.90;99.90;5.80;100310.00;;;;4934270;28;89347;-65
2023/04/22 03:57:51;;;;;;;8.03;5.27;;;5.90;99.90;5.80;100302.00;;;;4928640;28;110454;-65
2023/04/22 04:00:23;;;;;;;7.47;5.17;;;6.00;99.90;5.80;100302.00;;;;4931798;28;109079;-65
2023/04/22 04:02:48;;;;;;;5.87;4.33;;;6.00;99.90;5.80;100301.00;;;;4931843;28;118923;-65
2023/04/22 04:05:14;;;;;;;6.13;4.47;;;6.00;99.90;5.80;100297.00;;;;4933429;28;116882;-65
2023/04/22 04:07:40;;;;;;;10.53;5.37;;;6.00;99.90;5.90;100305.00;;;;4933848;28;87815;-65
2023/04/22 04:10:06;;;;;;;8.77;5.27;;;6.10;99.90;6.00;100309.00;;;;4932354;28;107959;-65
2023/04/22 04:12:32;;;;;;;6.33;4.93;;;6.10;99.90;6.00;100311.00;;;;4936896;28;104195;-65
2023/04/22 04:14:57;;;;;;;4.80;4.30;;;6.10;99.90;6.00;100313.00;;;;4933623;28;107267;-66
2023/04/22 04:17:24;;;;;;;7.47;3.77;;;6.20;99.90;6.10;100298.00;;;;4931506;28;109704;-65
2023/04/22 04:19:51;;;;;;;4.87;4.47;;;6.20;99.90;6.10;100306.00;;;;4935633;28;87211;-65
2023/04/22 04:22:17;;;;;;;4.77;4.27;;;6.30;99.90;6.10;100314.00;;;;4934787;28;99515;-65
2023/04/22 04:24:43;;;;;;;6.97;5.07;;;6.30;99.90;6.20;100305.00;;;;4938210;28;88057;-65
2023/04/22 04:27:10;;;;;;;5.63;4.90;;;6.30;99.90;6.20;100310.00;;;;4933895;28;109904;-65
2023/04/22 04:29:36;;;;;;;5.23;4.53;;;6.40;99.90;6.20;100297.00;;;;4935878;28;87823;-65
2023/04/22 04:32:03;;;;;;;6.00;4.70;;;6.40;99.90;6.30;100305.00;;;;4932985;28;88930;-65
2023/04/22 04:34:29;;;;;;;7.87;4.73;;;6.90;99.90;6.40;100299.00;;;;4922092;28;89114;-66
2023/04/22 04:36:55;;;;;;;6.03;5.03;;;6.40;99.90;6.40;100307.00;;;;4932187;28;97320;-66
2023/04/22 04:39:21;;;;;;;9.30;4.43;;;7.10;99.90;6.40;100297.00;;;;4932089;28;87970;-66
2023/04/22 04:41:47;;;;;;;6.07;4.43;;;6.60;99.90;6.50;100304.00;;;;4929516;28;118829;-66
2023/04/22 04:44:14;;;;;;;6.10;4.63;;;6.60;99.90;6.50;100299.00;;;;4935872;28;88583;-65
2023/04/22 04:46:40;;;;;;;6.13;3.73;;;6.60;99.90;6.60;100301.00;;;;4933771;28;87849;-66
2023/04/22 04:49:11;;;;;;;6.10;4.70;;;7.00;99.90;6.70;100307.00;;;;4931161;28;97651;-65
2023/04/22 04:51:37;;;;;;;7.17;4.67;;;6.80;99.90;6.70;100304.00;;;;4929240;28;89235;-65
2023/04/22 04:54:03;;;;;;;6.20;5.07;;;6.80;99.90;6.80;100307.00;;;;4931105;28;89132;-66
2023/04/22 04:56:30;;;;;;;5.37;4.63;;;6.90;99.90;6.90;100308.00;;;;4933359;28;87912;-66
2023/04/22 04:58:56;;;;;;;5.90;4.07;;;7.00;99.90;7.10;100308.00;;;;4936084;28;87770;-66
2023/04/22 05:01:23;;;;;;;7.03;5.60;;;7.10;99.90;7.20;100304.00;;;;4934886;28;88493;-66
2023/04/22 05:03:48;;;;;;;7.20;5.37;;;7.50;99.90;7.40;100304.00;;;;4933682;28;117100;-66
2023/04/22 05:06:14;;;;;;;6.40;5.53;;;7.40;99.90;7.60;100300.00;;;;4932968;28;87831;-66
2023/04/22 05:08:40;;;;;;;6.07;4.40;;;7.60;99.90;7.70;100314.00;;;;4928217;28;104094;-66
2023/04/22 05:11:05;;;;;;;5.97;4.33;;;7.90;99.90;7.90;100304.00;;;;4929802;28;117994;-67
2023/04/22 05:13:31;;;;;;;9.27;4.77;;;7.90;99.90;8.00;100313.00;;;;4914108;28;89901;-66
2023/04/22 05:15:58;;;;;;;7.63;4.93;;;8.00;99.90;8.20;100316.00;;;;4930196;28;89059;-66
2023/04/22 05:18:24;;;;;;;11.13;4.57;;;8.20;99.90;8.40;100319.00;;;;4929415;28;88063;-66
2023/04/22 05:20:58;;;;;;;8.77;5.80;;;8.40;99.90;8.60;100320.00;;;;4929546;28;88019;-65
2023/04/22 05:23:25;;;;;;;6.53;5.23;;;8.20;99.90;8.80;100315.00;;;;4927423;28;87992;-66
2023/04/22 05:25:50;;;;;;;5.40;4.90;;;8.70;99.90;9.00;100319.00;;;;4928009;28;99952;-65
2023/04/22 05:28:16;;;;;;;5.27;4.77;;;9.00;99.90;9.20;100312.00;;;;4928379;28;105947;-65
2023/04/22 05:30:42;;;;;;;8.37;5.13;;;9.20;99.90;9.40;100306.00;;;;4928679;28;116998;-65
2023/04/22 05:33:07;;;;;;;6.67;5.30;;;9.40;99.90;9.60;100322.00;;;;4927938;28;94002;-65
2023/04/22 05:35:34;;;;;;;7.07;4.60;;;9.50;99.90;9.70;100318.00;;;;4928059;28;88032;-66
2023/04/22 05:38:01;;;;;;;10.40;6.17;;;9.70;99.90;9.90;100324.00;;;;4929788;28;90639;-65
2023/04/22 05:40:27;;;;;;;8.13;5.17;;;9.80;99.90;10.10;100325.00;;;;4928421;28;89904;-65
2023/04/22 05:42:53;;;;;;;7.70;4.77;;;10.00;99.90;10.20;100332.00;;;;4929015;28;110899;-66
2023/04/22 05:45:18;;;;;;;7.33;5.50;;;10.20;99.90;10.40;100335.00;;;;4928547;28;110369;-65
2023/04/22 05:47:44;;;;;;;6.73;4.70;;;10.30;99.90;10.60;100332.00;;;;4926183;28;104909;-65
2023/04/22 05:50:10;;;;;;;8.43;6.10;;;10.50;99.90;10.80;100335.00;;;;4927716;28;105502;-65
2023/04/22 05:52:36;;;;;;;8.53;5.43;;;10.70;99.90;11.00;100330.00;;;;4925156;28;117338;-66
2023/04/22 05:55:01;;;;;;;8.57;5.30;;;10.90;99.90;11.20;100332.00;;;;4929327;28;109975;-66
2023/04/22 05:57:27;;;;;;;9.87;6.03;;;11.10;99.90;11.40;100333.00;;;;4932700;28;94384;-65
2023/04/22 05:59:52;;;;;;;6.97;5.60;;;11.20;99.90;11.50;100323.00;;;;4929320;28;118556;-66
2023/04/22 06:02:18;;;;;;;10.57;5.97;;;11.40;99.90;11.70;100323.00;;;;4930110;28;116799;-67
2023/04/22 06:04:44;;;;;;;7.37;5.33;;;11.60;99.90;11.90;100320.00;;;;4931968;28;110022;-66
2023/04/22 06:07:09;;;;;;;6.17;5.27;;;11.80;99.90;12.10;100312.00;;;;4933302;28;87914;-67
2023/04/22 06:09:35;;;;;;;6.57;4.30;;;12.00;99.90;12.40;100330.00;;;;4929094;28;117007;-67
2023/04/22 06:12:01;;;;;;;6.80;4.23;;;12.30;99.90;12.60;100324.00;;;;4932147;28;116511;-66
2023/04/22 06:14:26;;;;;;;7.00;5.33;;;12.50;99.90;12.90;100326.00;;;;4933441;28;109899;-66
2023/04/22 06:16:52;;;;;;;6.07;5.33;;;12.80;99.90;13.10;100339.00;;;;4931908;28;107916;-66
2023/04/22 06:19:18;;;;;;;5.93;4.63;;;13.00;99.90;13.40;100330.00;;;;4931271;28;88703;-66
2023/04/22 06:21:44;;;;;;;5.17;4.20;;;13.20;99.90;13.60;100336.00;;;;4929948;28;102190;-66
2023/04/22 06:24:10;;;;;;;8.53;5.30;;;13.50;99.90;13.90;100342.00;;;;4927707;28;87753;-66
2023/04/22 06:26:36;;;;;;;7.53;4.73;;;13.70;99.90;14.10;100334.00;;;;4931890;28;88119;-67
2023/04/22 06:29:04;;;;;;;7.67;4.47;;;14.00;99.90;14.30;100339.00;;;;4928362;28;88760;-66
2023/04/22 06:31:31;;;;;;;9.77;5.77;;;14.20;99.90;14.50;100338.00;;;;4930093;28;88424;-65
2023/04/22 06:33:57;;;;;;;7.65;5.00;;;14.40;99.90;14.80;100343.00;;;;4931895;28;87930;-66
2023/04/22 06:36:23;;;;;;;6.50;4.97;;;14.60;99.90;15.00;100338.00;;;;4931641;28;88066;-66
2023/04/22 06:38:48;;;;;;;6.32;5.22;;;14.90;99.20;15.10;100341.00;;;;4931746;28;108852;-64
2023/04/22 06:41:15;;;;;;;5.22;4.72;;;15.10;98.40;15.30;100340.00;;;;4930765;28;117827;-65
2023/04/22 06:43:41;;;;;;;6.35;5.07;;;15.20;98.30;15.50;100335.00;;;;4929320;28;101427;-67
2023/04/22 06:46:06;;;;;;;5.55;4.55;;;15.40;98.10;15.80;100334.00;;;;4932125;28;108874;-66
2023/04/22 06:48:32;;;;;;;6.53;4.60;;;15.60;98.00;16.10;100336.00;;;;4929610;28;117842;-65
2023/04/22 06:50:58;;;;;;;5.05;4.47;;;15.90;97.60;16.40;100338.00;;;;4930607;28;118417;-66
2023/04/22 06:53:23;;;;;;;6.18;4.55;;;16.20;97.10;16.70;100340.00;;;;4932780;28;110798;-64
2023/04/22 06:55:49;;;;;;;11.15;5.07;;;16.50;96.20;16.90;100335.00;;;;4933643;28;107446;-66
2023/04/22 06:58:15;;;;;;;7.00;5.13;;;16.70;94.80;17.10;100346.00;;;;4931427;28;87780;-65
2023/04/22 07:00:41;;;;;;;22.15;14.82;;;16.90;93.90;17.40;100343.00;;;;4933158;28;96035;-65
2023/04/22 07:03:06;;;;;;;11.27;5.72;;;17.20;93.70;17.60;100337.00;;;;4931393;28;108847;-65
2023/04/22 07:05:32;;;;;;;35.00;21.85;;;17.50;92.00;17.80;100343.00;;;;4930066;28;94270;-65
2023/04/22 07:07:58;;;;;;;8.82;5.88;;;17.70;91.50;18.10;100352.00;;;;4927227;28;117529;-65
2023/04/22 07:10:23;;;;;;;26.85;12.20;;;17.90;91.20;18.30;100348.00;;;;4931712;28;117345;-65
2023/04/22 07:12:49;;;;;;;5.50;4.15;;;18.10;89.40;18.50;100349.00;;;;4928403;28;110460;-65
2023/04/22 07:15:15;;;;;;;8.48;6.38;;;18.40;85.10;18.70;100345.00;;;;4931865;28;87831;-67
2023/04/22 07:17:41;;;;;;;16.25;9.15;;;18.50;84.60;19.00;100353.00;;;;4930044;28;104681;-64
2023/04/22 07:20:07;;;;;;;8.02;5.85;;;18.80;84.20;19.30;100351.00;;;;4927190;28;118022;-65
2023/04/22 07:22:33;;;;;;;8.63;4.63;;;19.00;80.20;19.40;100345.00;;;;4931556;28;88055;-65
2023/04/22 07:24:59;;;;;;;5.57;4.25;;;19.20;79.10;19.50;100343.00;;;;4927214;28;106671;-65
2023/04/22 07:27:24;;;;;;;11.35;9.98;;;19.40;80.10;19.80;100344.00;;;;4928750;28;89025;-65
2023/04/22 07:29:50;;;;;;;7.30;5.13;;;19.60;80.40;20.10;100346.00;;;;4919097;28;116528;-66
2023/04/22 07:32:16;;;;;;;11.73;6.55;;;19.70;79.80;20.30;100356.00;;;;4060968;28;10000403;-67
2023/04/22 07:34:41;;;;;;;7.85;4.70;;;20.20;79.50;20.60;100352.00;;;;4931850;28;87834;-67
2023/04/22 07:37:08;;;;;;;37.38;25.58;;;20.40;78.70;20.90;100351.00;;;;4930942;28;109817;-67
2023/04/22 07:39:34;;;;;;;9.23;6.63;;;20.70;78.10;21.20;100340.00;;;;4931055;28;87735;-67
2023/04/22 07:42:01;;;;;;;7.47;4.90;;;21.00;76.70;21.50;100342.00;;;;4932344;28;90405;-66
2023/04/22 07:44:26;;;;;;;5.93;4.68;;;21.30;75.40;21.70;100349.00;;;;4930259;28;89409;-67
2023/04/22 07:46:52;;;;;;;5.97;5.30;;;21.50;74.20;21.90;100344.00;;;;4930037;28;110084;-66
2023/04/22 07:49:18;;;;;;;8.95;4.93;;;21.70;73.20;22.20;100356.00;;;;4936364;28;88020;-67
2023/04/22 07:51:44;;;;;;;8.50;4.18;;;22.00;72.00;22.40;100350.00;;;;4930215;28;88007;-66
2023/04/22 07:54:10;;;;;;;9.27;5.00;;;22.20;71.20;22.60;100339.00;;;;4928484;28;88509;-67
2023/04/22 07:56:36;;;;;;;6.63;5.57;;;22.40;69.60;22.80;100344.00;;;;4930395;28;88281;-66
2023/04/22 07:59:02;;;;;;;6.85;3.75;;;22.70;68.50;23.10;100336.00;;;;4933168;28;87201;-66
2023/04/22 08:01:28;;;;;;;7.88;5.78;;;22.90;67.60;23.30;100340.00;;;;4929287;28;103246;-66
2023/04/22 08:03:53;;;;;;;12.50;4.88;;;23.20;66.40;23.50;100337.00;;;;4927797;28;117747;-67
2023/04/22 08:06:19;;;;;;;5.40;3.65;;;23.40;65.10;23.70;100342.00;;;;4925552;28;109660;-67
2023/04/22 08:08:45;;;;;;;6.93;4.07;;;23.50;64.00;23.90;100331.00;;;;4928159;28;100079;-66
2023/04/22 08:11:11;;;;;;;3.80;3.50;;;23.80;63.00;24.10;100336.00;;;;4930967;28;95916;-67
2023/04/22 08:13:36;;;;;;;11.88;8.25;;;24.00;61.40;24.20;100333.00;;;;4929926;28;88053;-67
2023/04/22 08:16:02;;;;;;;5.68;4.15;;;24.10;60.20;24.40;100323.00;;;;4927501;28;108860;-67
2023/04/22 08:18:28;;;;;;;4.43;4.03;;;24.20;59.40;24.50;100325.00;;;;4931853;28;87593;-67
2023/04/22 08:20:55;;;;;;;4.15;3.28;;;24.40;58.80;24.60;100323.00;;;;4926357;28;118503;-69
2023/04/22 08:23:21;;;;;;;4.03;3.60;;;24.50;57.80;24.80;100324.00;;;;4928933;28;87411;-68
2023/04/22 08:25:48;;;;;;;8.77;3.58;;;24.60;57.10;25.00;100326.00;;;;4930920;28;87880;-69
2023/04/22 08:28:13;;;;;;;8.07;3.13;;;24.80;55.50;25.10;100323.00;;;;4929812;28;109289;-69
2023/04/22 08:30:39;;;;;;;3.50;2.90;;;25.00;52.80;25.30;100318.00;;;;4931982;28;108237;-69
2023/04/22 08:33:05;;;;;;;6.70;2.83;;;25.10;52.50;25.40;100325.00;;;;4932036;28;89487;-69
2023/04/22 08:35:33;;;;;;;4.45;3.03;;;25.20;51.20;25.50;100322.00;;;;4931446;28;87978;-68
2023/04/22 08:37:59;;;;;;;5.35;3.28;;;25.30;50.70;25.60;100313.00;;;;4928570;28;87877;-68
2023/04/22 08:40:25;;;;;;;3.28;2.78;;;25.40;50.60;25.80;100325.00;;;;4928744;28;111072;-69
2023/04/22 08:42:51;;;;;;;10.65;3.15;;;25.60;48.60;25.90;100317.00;;;;4928932;28;109516;-70
2023/04/22 08:45:17;;;;;;;4.18;3.25;;;26.50;48.80;26.00;100325.00;;;;4930670;28;88122;-70
2023/04/22 08:47:43;;;;;;;6.60;3.13;;;25.80;44.70;25.90;100319.00;;;;4925732;28;109070;-69
2023/04/22 08:50:09;;;;;;;3.78;2.05;;;25.80;40.90;25.50;100308.00;;;;4928594;28;115904;-69
2023/04/22 08:52:36;;;;;;;2.30;1.83;;;25.50;38.10;24.90;100314.00;;;;4928914;28;88156;-70
2023/04/22 08:55:01;;;;;;;3.33;1.80;;;25.00;37.20;24.40;100316.00;;;;4931520;28;88983;-70
2023/04/22 08:57:28;;;;;;;4.78;2.42;;;24.50;37.50;24.10;100308.00;;;;4937019;28;108418;-68
2023/04/22 08:59:55;;;;;;;4.40;1.75;;;24.10;38.40;23.90;100313.00;;;;4909094;28;116982;-69
2023/04/22 09:02:23;;;;;;;5.45;2.10;;;23.90;38.60;23.80;100308.00;;;;4926766;28;88387;-70
2023/04/22 09:04:52;;;;;;;2.10;1.83;;;23.70;37.60;23.50;100310.00;;;;4926059;28;87931;-69
2023/04/22 09:07:27;;;;;;;11.88;1.88;;;23.50;37.20;23.40;100307.00;;;;4930790;28;87912;-69
2023/04/22 09:09:55;;;;;;;1.63;1.48;;;23.30;37.90;23.30;100309.00;;;;4911911;28;90614;-69
2023/04/22 09:12:21;;;;;;;2.85;1.73;;;23.20;38.60;23.30;100313.00;;;;4927783;28;87970;-70
2023/04/22 09:14:47;;;;;;;3.60;2.45;;;23.10;38.50;23.20;100303.00;;;;4927687;28;99919;-70
2023/04/22 09:17:29;;;;;;;2.25;1.55;;;23.00;38.50;23.20;100306.00;;;;4926976;28;108656;-70
2023/04/22 09:19:59;;;;;;;3.10;2.17;;;23.00;38.80;23.20;100302.00;;;;4928232;28;89205;-68
2023/04/22 09:22:27;;;;;;;2.47;1.70;;;22.90;39.20;23.30;100304.00;;;;4926597;28;99446;-69
2023/04/22 09:24:53;;;;;;;4.93;2.40;;;23.00;39.90;23.50;100299.00;;;;4930292;28;87908;-71
2023/04/22 09:27:23;;;;;;;1.70;1.60;;;23.20;38.40;23.60;100295.00;;;;4929896;28;109071;-70
2023/04/22 09:29:50;;;;;;;4.85;2.00;;;23.30;38.60;23.60;100295.00;;;;4930833;28;88471;-70
2023/04/22 09:32:16;;;;;;;2.40;1.90;;;23.30;38.20;23.60;100296.00;;;;4929674;28;87978;-69
2023/04/22 09:34:53;;;;;;;3.92;2.25;;;23.30;38.30;23.50;100296.00;;;;4933965;28;87962;-69
2023/04/22 09:37:25;;;;;;;2.75;1.77;;;23.30;37.50;23.40;100297.00;;;;4933447;28;87167;-69
2023/04/22 09:39:52;;;;;;;6.03;2.63;;;23.20;37.00;23.30;100288.00;;;;4930294;28;87951;-68
2023/04/22 09:42:19;;;;;;;3.40;2.10;;;23.10;37.50;23.40;100288.00;;;;4930000;28;107888;-69
2023/04/22 09:44:54;;;;;;;3.05;1.90;;;23.10;38.40;23.40;100298.00;;;;4933252;28;88664;-68
2023/04/22 09:47:22;;;;;;;3.30;2.00;;;23.10;36.80;23.30;100285.00;;;;4932871;28;88080;-68
2023/04/22 09:49:48;;;;;;;2.10;1.92;;;23.10;36.60;23.30;100281.00;;;;4933533;28;87843;-69
2023/04/22 09:52:26;;;;;;;1.88;1.77;;;23.00;36.70;23.30;100285.00;;;;4932466;28;88551;-69
2023/04/22 09:54:53;;;;;;;7.43;2.35;;;23.00;37.30;23.30;100273.00;;;;4931861;28;87781;-69
2023/04/22 09:57:21;;;;;;;1.88;1.48;;;23.00;37.00;23.30;100258.00;;;;4931352;28;87996;-69
2023/04/22 09:59:50;;;;;;;1.50;1.40;;;23.00;37.20;23.50;100267.00;;;;4932929;28;89260;-68
2023/04/22 10:02:16;;;;;;;2.97;2.05;;;23.10;37.40;23.80;100262.00;;;;4932160;28;88709;-69
2023/04/22 10:04:41;;;;;;;5.70;1.95;;;23.30;38.00;24.00;100265.00;;;;4935018;28;111245;-68
2023/04/22 10:07:07;;;;;;;3.05;2.25;;;23.50;36.80;24.00;100252.00;;;;4933619;28;88394;-71
2023/04/22 10:09:34;;;;;;;2.05;1.75;;;23.60;35.80;24.10;100242.00;;;;4931511;28;104752;-69
2023/04/22 10:12:00;;;;;;;7.13;2.20;;;23.70;36.00;24.10;100256.00;;;;4930585;28;89078;-69
2023/04/22 10:14:26;;;;;;;2.10;1.55;;;23.70;35.60;24.00;100245.00;;;;4912106;28;88046;-69
2023/04/22 10:16:58;;;;;;;2.47;1.83;;;23.60;35.20;24.00;100243.00;;;;4926305;28;88319;-71
2023/04/22 10:19:25;;;;;;;3.15;1.77;;;23.60;35.90;24.20;100255.00;;;;4930483;28;105895;-70
2023/04/22 10:21:58;;;;;;;8.32;1.67;;;23.70;36.10;24.30;100255.00;;;;4934627;28;88461;-70
2023/04/22 10:24:28;;;;;;;1.58;1.48;;;23.80;35.70;24.40;100246.00;;;;4931747;28;104395;-69
2023/04/22 10:27:01;;;;;;;3.60;1.90;;;23.90;34.10;24.20;100244.00;;;;4933124;28;87424;-69
2023/04/22 10:29:39;;;;;;;2.67;1.70;;;23.90;33.90;24.10;100235.00;;;;4927279;28;87905;-69
2023/04/22 10:32:24;;;;;;;1.90;1.30;;;23.80;34.30;24.10;100240.00;;;;4930453;28;88769;-70
2023/04/22 10:35:08;;;;;;;2.35;1.08;;;23.80;33.50;24.00;100228.00;;;;4931029;28;88957;-70
2023/04/22 10:37:34;;;;;;;1.40;1.27;;;23.70;33.10;24.10;100230.00;;;;4931494;28;87930;-70
2023/04/22 10:40:11;;;;;;;1.63;1.42;;;23.70;33.80;24.30;100234.00;;;;4933287;28;87901;-70
2023/04/22 10:42:41;;;;;;;4.10;1.83;;;23.80;34.10;24.50;100234.00;;;;4931233;28;87936;-71
2023/04/22 10:45:12;;;;;;;2.38;1.48;;;24.00;33.80;24.70;100234.00;;;;4932489;28;88193;-70
2023/04/22 10:47:38;;;;;;;6.43;1.83;;;24.20;34.00;24.90;100237.00;;;;4931193;28;87989;-70